Terminal Aerodrome Forecast
Issued by NWS

Home | Current Version | Previous Version | Text Only | Print | Product List | Glossary On
Versions: 1 2 3 4 5 6 7 8 9 10 11 12 13 14
000
FTUS44 KBMX 280911 AAA
TAFEET
TAF AMD
KEET 280911Z 2809/2906 00000KT P6SM BKN008 OVC020
     FM281200 15005KT 3SM BR BKN015
     FM281700 17009G18KT P6SM SCT050
     FM282000 17012KT P6SM BKN150=

USA.gov is the U.S. government's official web portal to all federal, state and local government web resources and services.